createdAt,value
2023-04-13T00:00:12.153Z,91.64
2023-04-13T00:01:19.931Z,91.93
2023-04-13T00:02:45.379Z,91.77
2023-04-13T00:03:53.011Z,91.60
2023-04-13T00:05:05.633Z,91.50
2023-04-13T00:06:13.367Z,91.63
2023-04-13T00:07:24.558Z,91.65
2023-04-13T00:08:36.019Z,91.46
2023-04-13T00:09:40.707Z,91.45
2023-04-13T00:10:51.376Z,91.67
2023-04-13T00:12:01.745Z,91.43
2023-04-13T00:13:13.321Z,91.69
2023-04-13T00:14:18.892Z,91.39
2023-04-13T00:15:23.824Z,91.38
2023-04-13T00:16:39.131Z,91.62
2023-04-13T00:17:47.840Z,91.49
2023-04-13T00:18:58.932Z,91.23
2023-04-13T00:20:13.424Z,91.89
2023-04-13T00:21:17.660Z,91.76
2023-04-13T00:22:22.966Z,91.71
2023-04-13T00:23:29.395Z,91.74
2023-04-13T00:24:40.573Z,92.09
2023-04-13T00:25:48.615Z,92.43
2023-04-13T00:27:02.980Z,92.53
2023-04-13T00:28:28.891Z,92.43
2023-04-13T00:29:32.971Z,92.41
2023-04-13T00:30:37.065Z,92.21
2023-04-13T00:31:47.267Z,91.70
2023-04-13T00:32:56.254Z,91.62
2023-04-13T00:34:07.834Z,91.96
2023-04-13T00:35:24.836Z,91.67
2023-04-13T00:36:32.400Z,92.09
2023-04-13T00:37:47.428Z,91.73
2023-04-13T00:38:55.685Z,91.86
2023-04-13T00:40:06.113Z,91.81
2023-04-13T00:41:13.364Z,92.51
2023-04-13T00:42:26.368Z,92.19
2023-04-13T00:43:30.742Z,92.57
2023-04-13T00:44:35.750Z,92.65
2023-04-13T00:45:48.819Z,92.57
2023-04-13T00:47:53.029Z,92.39
2023-04-13T00:48:36.675Z,92.39
2023-04-13T00:49:42.585Z,92.05
2023-04-13T00:50:48.792Z,92.41
2023-04-13T00:52:04.612Z,92.01
2023-04-13T00:53:14.170Z,92.11
2023-04-13T00:54:19.682Z,91.87
2023-04-13T00:55:25.167Z,91.94
2023-04-13T00:56:31.177Z,91.90
2023-04-13T00:57:36.699Z,92.31
2023-04-13T00:58:45.619Z,92.29
2023-04-13T00:59:50.232Z,92.30
2023-04-13T01:00:57.715Z,92.64
2023-04-13T01:02:11.555Z,92.64
2023-04-13T01:03:16.040Z,92.42
2023-04-13T01:04:27.830Z,92.43
2023-04-13T01:05:56.219Z,92.59
2023-04-13T01:07:18.847Z,92.44
2023-04-13T01:09:10.871Z,92.52
2023-04-13T01:10:38.572Z,92.63
2023-04-13T01:12:14.852Z,92.91
2023-04-13T01:13:40.567Z,93.32
2023-04-13T01:15:08.926Z,93.92
2023-04-13T01:16:47.425Z,93.37
2023-04-13T01:18:05.473Z,93.38
2023-04-13T01:20:09.728Z,93.75
2023-04-13T01:21:22.010Z,93.17
2023-04-13T01:22:42.770Z,93.38
2023-04-13T01:24:28.136Z,93.10
2023-04-13T01:25:55.871Z,93.03
2023-04-13T01:27:21.527Z,93.35
2023-04-13T01:28:28.098Z,93.18
2023-04-13T01:29:34.244Z,93.37
2023-04-13T01:30:43.108Z,93.46
2023-04-13T01:31:49.128Z,93.49
2023-04-13T01:32:53.909Z,93.07
2023-04-13T01:33:59.645Z,93.20
2023-04-13T01:35:08.312Z,93.09
2023-04-13T01:36:15.596Z,93.48
2023-04-13T01:37:26.702Z,92.98
2023-04-13T01:38:30.214Z,93.31
2023-04-13T01:39:43.061Z,93.77
2023-04-13T01:40:48.181Z,93.74
2023-04-13T01:41:54.765Z,93.73
2023-04-13T01:42:58.904Z,93.63
2023-04-13T01:44:02.608Z,93.62
2023-04-13T01:45:28.013Z,93.40
2023-04-13T01:46:46.143Z,93.08
2023-04-13T01:48:19.352Z,94.24
2023-04-13T01:49:24.133Z,94.57
2023-04-13T01:50:52.211Z,94.42
2023-04-13T01:52:11.816Z,94.53
2023-04-13T01:53:30.684Z,94.06
2023-04-13T01:54:40.412Z,94.27
2023-04-13T01:55:50.296Z,94.59
2023-04-13T01:56:57.560Z,95.06
2023-04-13T01:58:06.881Z,95.02
2023-04-13T01:59:16.388Z,94.82
2023-04-13T02:00:20.634Z,94.66
2023-04-13T02:01:31.098Z,94.56
2023-04-13T02:02:35.022Z,94.76
2023-04-13T02:03:39.332Z,94.51
2023-04-13T02:04:43.247Z,94.42
2023-04-13T02:06:01.846Z,94.70
2023-04-13T02:07:07.681Z,94.63
2023-04-13T02:08:14.017Z,94.50
2023-04-13T02:09:18.499Z,94.33
2023-04-13T02:10:27.843Z,94.38
2023-04-13T02:11:53.577Z,94.98
2023-04-13T02:13:04.026Z,94.88
2023-04-13T02:14:19.050Z,94.31
2023-04-13T02:15:26.965Z,94.21
2023-04-13T02:16:31.439Z,94.18
2023-04-13T02:17:43.749Z,94.31
2023-04-13T02:18:49.833Z,94.35
2023-04-13T02:19:53.937Z,94.07
2023-04-13T02:21:14.795Z,94.20
2023-04-13T02:22:31.544Z,94.45
2023-04-13T02:23:38.162Z,94.20
2023-04-13T02:24:57.272Z,94.00
2023-04-13T02:26:21.384Z,93.67
2023-04-13T02:27:29.064Z,94.17
2023-04-13T02:28:43.585Z,93.98
2023-04-13T02:29:55.337Z,94.23
2023-04-13T02:31:09.348Z,94.30
2023-04-13T02:32:16.293Z,93.89
2023-04-13T02:33:21.676Z,94.11
2023-04-13T02:34:28.298Z,94.42
2023-04-13T02:35:35.149Z,94.75
2023-04-13T02:36:40.845Z,94.77
2023-04-13T02:37:48.924Z,95.00
2023-04-13T02:38:58.632Z,94.74
2023-04-13T02:40:03.292Z,94.75
2023-04-13T02:41:26.057Z,94.74
2023-04-13T02:42:43.925Z,94.61
2023-04-13T02:43:50.364Z,94.65
2023-04-13T02:44:54.401Z,94.96
2023-04-13T02:46:12.586Z,94.87
2023-04-13T02:47:17.555Z,95.32
2023-04-13T02:48:21.919Z,95.23
2023-04-13T02:49:26.229Z,95.02
2023-04-13T02:50:34.100Z,94.71
2023-04-13T02:51:38.057Z,94.38
2023-04-13T02:52:43.908Z,94.18
2023-04-13T02:53:48.222Z,94.22
2023-04-13T02:54:55.257Z,94.63
2023-04-13T02:56:14.427Z,94.79
2023-04-13T02:57:18.620Z,94.82
2023-04-13T02:58:37.987Z,95.01
2023-04-13T02:59:46.922Z,94.47
2023-04-13T03:00:53.425Z,94.87
2023-04-13T03:01:58.979Z,95.30
2023-04-13T03:03:09.099Z,95.13
2023-04-13T03:04:19.279Z,95.11
2023-04-13T03:05:26.724Z,94.78
2023-04-13T03:06:40.163Z,94.35
2023-04-13T03:07:43.699Z,94.26
2023-04-13T03:08:48.102Z,94.69
2023-04-13T03:09:53.172Z,94.86
2023-04-13T03:10:56.867Z,94.78
2023-04-13T03:12:02.877Z,94.63
2023-04-13T03:13:12.957Z,95.15
2023-04-13T03:14:22.132Z,94.88
2023-04-13T03:15:25.743Z,95.02
2023-04-13T03:16:29.779Z,94.88
2023-04-13T03:17:34.037Z,94.51
2023-04-13T03:18:38.386Z,94.24
2023-04-13T03:19:47.576Z,94.24
2023-04-13T03:20:51.154Z,94.09
2023-04-13T03:21:55.156Z,94.31
2023-04-13T03:23:02.270Z,94.62
2023-04-13T03:24:12.773Z,94.25
2023-04-13T03:25:19.351Z,94.05
2023-04-13T03:26:28.477Z,94.74
2023-04-13T03:27:32.197Z,95.02
2023-04-13T03:28:36.955Z,94.85
2023-04-13T03:29:40.600Z,94.76
2023-04-13T03:30:46.508Z,94.54
2023-04-13T03:31:57.296Z,94.68
2023-04-13T03:33:03.564Z,94.64
2023-04-13T03:34:24.738Z,94.73
2023-04-13T03:35:33.445Z,94.95
2023-04-13T03:36:41.048Z,94.53
2023-04-13T03:37:47.929Z,94.34
2023-04-13T03:38:55.070Z,94.32
2023-04-13T03:41:45.278Z,94.78
2023-04-13T03:42:52.467Z,95.14
2023-04-13T03:44:01.242Z,95.17
2023-04-13T03:45:47.559Z,95.79
2023-04-13T03:47:00.379Z,95.63
2023-04-13T03:48:17.036Z,95.26
2023-04-13T03:49:34.389Z,95.22
2023-04-13T03:50:58.487Z,95.15
2023-04-13T03:53:49.345Z,95.85
2023-04-13T03:54:54.297Z,95.81
2023-04-13T03:56:03.716Z,95.58
2023-04-13T03:57:12.297Z,95.36
2023-04-13T03:58:19.504Z,95.49
2023-04-13T03:59:23.623Z,95.68
2023-04-13T04:00:31.629Z,96.13
2023-04-13T04:01:39.661Z,96.54
2023-04-13T04:02:43.659Z,96.70
2023-04-13T04:03:48.032Z,96.65
2023-04-13T04:04:52.902Z,96.80
2023-04-13T04:05:59.458Z,96.33
2023-04-13T04:07:04.636Z,96.29
2023-04-13T04:08:13.350Z,96.07
2023-04-13T04:09:17.558Z,96.24
2023-04-13T04:10:21.410Z,96.33
2023-04-13T04:11:33.185Z,96.13
2023-04-13T04:12:40.281Z,96.31
2023-04-13T04:13:46.205Z,96.79
2023-04-13T04:14:50.259Z,97.26
2023-04-13T04:15:58.489Z,97.29
2023-04-13T04:17:02.327Z,97.53
2023-04-13T04:18:14.129Z,97.34
2023-04-13T04:19:18.419Z,97.31
2023-04-13T04:20:22.222Z,97.53
2023-04-13T04:21:35.427Z,97.54
2023-04-13T04:22:44.956Z,97.42
2023-04-13T04:23:57.202Z,97.31
2023-04-13T04:25:17.105Z,97.62
2023-04-13T04:26:26.008Z,98.19
2023-04-13T04:27:31.690Z,98.45
2023-04-13T04:28:42.395Z,98.02
2023-04-13T04:30:39.776Z,97.97
2023-04-13T04:31:47.690Z,97.23
2023-04-13T04:32:56.724Z,97.00
2023-04-13T04:34:03.115Z,97.23
2023-04-13T04:35:19.011Z,97.21
2023-04-13T04:36:30.060Z,97.60
2023-04-13T04:37:41.657Z,97.56
2023-04-13T04:38:56.197Z,97.60
2023-04-13T04:40:09.444Z,98.01
2023-04-13T04:41:23.684Z,98.25
2023-04-13T04:42:36.132Z,98.09
2023-04-13T04:45:48.260Z,98.91
2023-04-13T04:47:12.247Z,98.30
2023-04-13T04:49:51.126Z,98.64
2023-04-13T04:51:25.462Z,98.68
2023-04-13T04:52:33.311Z,98.21
2023-04-13T04:53:39.975Z,97.65
2023-04-13T04:54:54.496Z,97.71
2023-04-13T04:55:58.537Z,97.27
2023-04-13T04:57:02.446Z,97.68
2023-04-13T04:58:27.854Z,96.93
2023-04-13T04:59:32.485Z,97.02
2023-04-13T05:00:37.014Z,96.68
2023-04-13T05:01:50.158Z,96.25
2023-04-13T05:02:55.885Z,95.98
2023-04-13T05:04:02.224Z,95.55
2023-04-13T05:05:29.609Z,95.99
2023-04-13T05:06:41.886Z,95.97
2023-04-13T05:08:04.952Z,95.84
2023-04-13T05:09:27.656Z,95.68
2023-04-13T05:10:38.038Z,95.59
2023-04-13T05:11:42.969Z,95.33
2023-04-13T05:13:00.892Z,95.15
2023-04-13T05:14:43.351Z,95.02
2023-04-13T05:16:02.560Z,94.81
2023-04-13T05:17:29.866Z,94.83
2023-04-13T05:18:52.864Z,95.13
2023-04-13T05:20:00.177Z,94.86
2023-04-13T05:21:24.460Z,94.82
2023-04-13T05:22:34.593Z,94.21
2023-04-13T05:23:40.503Z,93.08
2023-04-13T05:25:08.785Z,93.32
2023-04-13T05:26:42.920Z,92.92
2023-04-13T05:28:15.667Z,91.65
2023-04-13T05:29:32.583Z,89.70
2023-04-13T05:30:40.391Z,88.98
2023-04-13T05:31:50.440Z,87.86
2023-04-13T05:33:09.776Z,87.41
2023-04-13T05:34:28.730Z,87.54
2023-04-13T05:35:42.580Z,85.95
2023-04-13T05:36:54.118Z,84.83
2023-04-13T05:38:35.191Z,84.39
2023-04-13T05:41:02.197Z,84.41
2023-04-13T05:42:17.507Z,82.73
2023-04-13T05:43:30.890Z,83.65
2023-04-13T05:44:39.576Z,83.43
2023-04-13T05:45:50.092Z,83.76
2023-04-13T05:47:11.637Z,83.24
2023-04-13T05:48:33.555Z,82.33
2023-04-13T05:49:46.871Z,81.83
2023-04-13T05:51:11.489Z,78.56
2023-04-13T05:52:22.034Z,79.39
2023-04-13T05:53:29.195Z,77.99
2023-04-13T05:54:34.613Z,76.46
2023-04-13T05:55:48.022Z,75.81
2023-04-13T05:57:03.945Z,75.32
2023-04-13T05:58:13.845Z,75.69
2023-04-13T05:59:20.130Z,75.64
2023-04-13T06:00:39.019Z,76.15
2023-04-13T06:02:12.376Z,75.69
2023-04-13T06:04:05.537Z,75.56
2023-04-13T06:05:39.225Z,76.22
2023-04-13T06:06:58.460Z,75.60
2023-04-13T06:08:10.799Z,75.69
2023-04-13T06:09:17.907Z,76.95
2023-04-13T06:10:33.587Z,76.31
2023-04-13T06:11:47.954Z,76.46
2023-04-13T06:12:59.792Z,76.25
2023-04-13T06:14:17.074Z,77.13
2023-04-13T06:15:44.393Z,77.29
2023-04-13T06:18:39.210Z,76.14
2023-04-13T06:19:44.092Z,76.39
2023-04-13T06:21:02.254Z,77.23
2023-04-13T06:22:11.891Z,76.98
2023-04-13T06:23:25.808Z,76.79
2023-04-13T06:24:29.738Z,76.47
2023-04-13T06:25:39.075Z,76.18
2023-04-13T06:27:01.781Z,76.07
2023-04-13T06:28:17.831Z,76.42
2023-04-13T06:29:36.989Z,75.75
2023-04-13T06:30:56.105Z,75.56
2023-04-13T06:32:01.511Z,75.65
2023-04-13T06:33:24.786Z,75.17
2023-04-13T06:34:31.296Z,74.92
2023-04-13T06:35:41.943Z,74.24
2023-04-13T06:36:57.743Z,73.50
2023-04-13T06:38:06.353Z,73.72
2023-04-13T06:39:14.465Z,73.43
2023-04-13T06:40:44.695Z,74.02
2023-04-13T06:41:58.097Z,73.57
2023-04-13T06:43:08.938Z,74.16
2023-04-13T06:44:19.188Z,74.45
2023-04-13T06:45:45.899Z,74.20
2023-04-13T06:47:16.128Z,74.47
2023-04-13T06:48:27.245Z,74.24
2023-04-13T06:49:39.947Z,74.52
2023-04-13T06:52:18.218Z,74.09
2023-04-13T06:53:23.729Z,74.98
2023-04-13T06:54:27.509Z,75.13
2023-04-13T06:55:31.176Z,74.94
2023-04-13T06:56:34.830Z,74.88
2023-04-13T06:57:39.256Z,75.32
2023-04-13T06:58:46.657Z,75.35
2023-04-13T06:59:51.747Z,76.35
2023-04-13T07:00:56.166Z,76.17
2023-04-13T07:02:00.152Z,76.07
2023-04-13T07:03:04.014Z,76.47
2023-04-13T07:04:17.476Z,76.48
2023-04-13T07:05:35.752Z,76.79
2023-04-13T07:06:56.678Z,77.44
2023-04-13T07:08:01.921Z,77.37
2023-04-13T07:09:49.619Z,77.07
2023-04-13T07:11:11.041Z,77.14
2023-04-13T07:12:20.365Z,76.75
2023-04-13T07:13:29.316Z,76.72
2023-04-13T07:14:56.420Z,77.97
2023-04-13T07:19:52.348Z,77.31
2023-04-13T07:21:11.018Z,77.05
2023-04-13T07:22:56.666Z,76.40
2023-04-13T07:24:17.255Z,77.59
2023-04-13T07:25:28.368Z,77.33
2023-04-13T07:26:34.728Z,77.69
2023-04-13T07:27:46.888Z,76.92
2023-04-13T07:29:02.589Z,76.30
2023-04-13T07:30:39.972Z,75.40
2023-04-13T07:31:58.921Z,75.84
2023-04-13T07:33:13.267Z,75.11
2023-04-13T07:34:35.918Z,75.30
2023-04-13T07:36:01.288Z,75.02
2023-04-13T07:37:39.346Z,74.81
2023-04-13T07:38:43.683Z,73.74
2023-04-13T07:40:12.037Z,73.43
2023-04-13T07:41:51.800Z,72.44
2023-04-13T07:42:59.147Z,72.67
2023-04-13T07:44:25.479Z,72.13
2023-04-13T07:45:37.322Z,71.67
2023-04-13T07:48:30.426Z,70.04
2023-04-13T07:49:38.924Z,70.18
2023-04-13T07:50:49.975Z,70.49
2023-04-13T07:52:00.552Z,70.79
2023-04-13T07:53:24.327Z,68.82
2023-04-13T07:54:46.854Z,69.20
2023-04-13T07:57:34.786Z,68.79
2023-04-13T07:58:48.222Z,68.86
2023-04-13T08:00:15.863Z,67.74
2023-04-13T08:01:27.978Z,67.13
2023-04-13T08:02:42.495Z,66.62
2023-04-13T08:03:47.325Z,66.35
2023-04-13T08:04:55.383Z,65.62
2023-04-13T08:06:09.859Z,65.59
2023-04-13T08:07:20.314Z,65.57
2023-04-13T08:08:24.935Z,65.90
2023-04-13T08:09:43.488Z,65.64
2023-04-13T08:11:09.799Z,66.71
2023-04-13T08:12:23.748Z,66.45
2023-04-13T08:13:30.650Z,66.77
2023-04-13T08:14:35.344Z,66.74
2023-04-13T08:15:42.360Z,65.55
2023-04-13T08:16:47.270Z,66.12
2023-04-13T08:17:56.168Z,66.10
2023-04-13T08:19:02.263Z,65.95
2023-04-13T08:20:16.013Z,66.12
2023-04-13T08:21:24.418Z,66.30
2023-04-13T08:22:37.106Z,66.49
2023-04-13T08:24:00.655Z,65.59
2023-04-13T08:25:07.472Z,65.90
2023-04-13T08:26:23.563Z,65.81
2023-04-13T08:27:30.900Z,66.18
2023-04-13T08:28:37.710Z,65.25
2023-04-13T08:29:57.415Z,64.67
2023-04-13T08:31:13.742Z,64.62
2023-04-13T08:32:21.256Z,65.14
2023-04-13T08:33:32.840Z,65.11
2023-04-13T08:34:43.550Z,65.26
2023-04-13T08:35:50.886Z,64.82
2023-04-13T08:37:02.503Z,64.01
2023-04-13T08:38:15.216Z,63.27
2023-04-13T08:39:25.985Z,62.47
2023-04-13T08:40:51.372Z,61.96
2023-04-13T08:42:07.047Z,61.35
2023-04-13T08:43:29.146Z,59.52
2023-04-13T08:44:54.427Z,59.40
2023-04-13T08:46:01.646Z,59.21
2023-04-13T08:47:06.943Z,58.20
2023-04-13T08:48:20.209Z,59.59
2023-04-13T08:49:29.050Z,58.76
2023-04-13T08:50:32.559Z,57.49
2023-04-13T08:51:38.824Z,57.99
2023-04-13T08:52:42.680Z,58.08
2023-04-13T08:53:46.957Z,57.73
2023-04-13T08:55:01.614Z,55.50
2023-04-13T08:56:12.631Z,55.76
2023-04-13T08:57:17.010Z,56.55
2023-04-13T08:58:24.626Z,57.46
2023-04-13T08:59:30.076Z,57.24
2023-04-13T09:00:36.217Z,57.71
2023-04-13T09:01:42.072Z,56.55
2023-04-13T09:03:00.324Z,56.23
2023-04-13T09:04:13.621Z,56.27
2023-04-13T09:05:28.641Z,56.06
2023-04-13T09:06:41.627Z,55.86
2023-04-13T09:08:05.265Z,55.33
2023-04-13T09:09:15.634Z,55.34
2023-04-13T09:10:34.214Z,54.10
2023-04-13T09:12:07.677Z,55.18
2023-04-13T09:13:27.170Z,55.81
2023-04-13T09:14:45.725Z,55.59
2023-04-13T09:17:34.792Z,54.03
2023-04-13T09:19:03.177Z,55.19
2023-04-13T09:20:50.180Z,54.84
2023-04-13T09:22:00.077Z,55.58
2023-04-13T09:23:17.992Z,54.72
2023-04-13T09:24:44.418Z,54.38
2023-04-13T09:26:17.130Z,53.71
2023-04-13T09:27:27.388Z,54.11
2023-04-13T09:28:53.684Z,51.48
2023-04-13T09:30:17.552Z,52.23
2023-04-13T09:31:37.999Z,52.34
2023-04-13T09:32:51.806Z,51.29
2023-04-13T09:34:03.533Z,51.12
2023-04-13T09:35:10.689Z,51.11
2023-04-13T09:37:38.045Z,50.88
2023-04-13T09:39:03.690Z,50.67
2023-04-13T09:40:16.005Z,49.85
2023-04-13T09:41:40.945Z,51.17
2023-04-13T09:43:00.132Z,50.45
2023-04-13T09:44:38.699Z,48.76
2023-04-13T09:45:45.136Z,47.98
2023-04-13T09:47:03.964Z,47.84
2023-04-13T09:48:26.669Z,45.97
2023-04-13T09:49:54.286Z,45.36
2023-04-13T09:51:13.787Z,41.60
2023-04-13T09:52:35.418Z,42.67
2023-04-13T09:54:01.881Z,42.38
2023-04-13T09:55:23.147Z,43.15
2023-04-13T09:56:34.820Z,44.23
2023-04-13T09:59:35.549Z,43.91
2023-04-13T10:00:42.050Z,43.26
2023-04-13T10:02:23.625Z,42.60
2023-04-13T10:03:35.421Z,43.64
2023-04-13T10:04:43.935Z,42.07
2023-04-13T10:05:59.361Z,42.78
2023-04-13T10:07:32.705Z,42.64
2023-04-13T10:08:42.864Z,42.62
2023-04-13T10:10:01.718Z,41.51
2023-04-13T10:11:21.335Z,41.97
2023-04-13T10:12:35.595Z,40.95
2023-04-13T10:14:09.144Z,40.17
2023-04-13T10:16:23.135Z,36.89
2023-04-13T10:18:40.465Z,37.66
2023-04-13T10:20:27.980Z,37.39
2023-04-13T10:21:54.795Z,35.99
2023-04-13T10:23:08.346Z,36.75
2023-04-13T10:24:41.218Z,37.64
2023-04-13T10:26:00.293Z,37.61
2023-04-13T10:27:18.403Z,37.08
2023-04-13T10:28:27.480Z,36.84
2023-04-13T10:29:33.617Z,36.72
2023-04-13T10:30:52.833Z,36.77
2023-04-13T10:32:57.383Z,36.21
2023-04-13T10:36:12.630Z,36.73
2023-04-13T10:37:28.842Z,35.86
2023-04-13T10:38:50.311Z,35.92
2023-04-13T10:40:14.508Z,36.00
2023-04-13T10:41:26.408Z,35.96
2023-04-13T10:42:52.540Z,35.97
2023-04-13T10:44:08.593Z,37.20
2023-04-13T10:45:26.697Z,36.91
2023-04-13T10:46:31.861Z,37.28
2023-04-13T10:47:38.845Z,36.90
2023-04-13T10:48:43.534Z,37.03
2023-04-13T10:49:49.980Z,37.29
2023-04-13T10:51:00.812Z,36.94
2023-04-13T10:52:14.272Z,36.74
2023-04-13T10:53:26.820Z,36.59
2023-04-13T10:54:39.152Z,36.43
2023-04-13T10:55:48.094Z,37.15
2023-04-13T10:57:00.749Z,37.25
2023-04-13T10:58:17.447Z,37.52
2023-04-13T10:59:21.237Z,37.17
2023-04-13T11:00:38.315Z,37.06
2023-04-13T11:01:48.146Z,37.32
2023-04-13T11:03:00.658Z,37.68
2023-04-13T11:04:18.422Z,37.93
2023-04-13T11:05:24.560Z,37.61
2023-04-13T11:06:28.558Z,37.97
2023-04-13T11:09:08.721Z,38.35
2023-04-13T11:10:30.233Z,38.21
2023-04-13T11:11:37.351Z,38.27
2023-04-13T11:13:02.431Z,37.94
2023-04-13T11:14:09.807Z,38.35
2023-04-13T11:15:30.661Z,38.20
2023-04-13T11:16:45.877Z,38.46
2023-04-13T11:18:02.699Z,38.83
2023-04-13T11:19:06.410Z,38.87
2023-04-13T11:20:12.270Z,39.09
2023-04-13T11:21:24.952Z,38.70
2023-04-13T11:22:39.050Z,38.73
2023-04-13T11:24:02.695Z,39.51
2023-04-13T11:25:10.413Z,39.95
2023-04-13T11:26:14.709Z,39.28
2023-04-13T11:27:40.989Z,38.33
2023-04-13T11:28:49.644Z,38.51
2023-04-13T11:30:31.421Z,38.21
2023-04-13T11:31:42.056Z,39.52
2023-04-13T11:33:55.569Z,39.24
2023-04-13T11:34:21.257Z,38.86
2023-04-13T11:35:34.363Z,39.13
2023-04-13T11:36:53.322Z,39.31
2023-04-13T11:38:01.668Z,39.85
2023-04-13T11:39:20.998Z,39.01
2023-04-13T11:40:28.584Z,38.83
2023-04-13T11:41:43.848Z,39.34
2023-04-13T11:42:55.388Z,39.37
2023-04-13T11:44:03.107Z,39.44
2023-04-13T11:45:08.851Z,39.64
2023-04-13T11:46:27.004Z,40.18
2023-04-13T11:47:32.518Z,39.84
2023-04-13T11:48:36.938Z,39.92
2023-04-13T11:50:09.363Z,40.27
2023-04-13T11:51:14.614Z,40.74
2023-04-13T11:52:18.663Z,40.13
2023-04-13T11:53:22.950Z,40.48
2023-04-13T11:54:28.731Z,40.53
2023-04-13T11:55:52.128Z,40.57
2023-04-13T11:57:10.122Z,40.81
2023-04-13T11:58:18.924Z,40.44
2023-04-13T11:59:26.602Z,40.43
2023-04-13T12:01:02.211Z,40.65
2023-04-13T12:02:17.003Z,40.66
2023-04-13T12:03:41.930Z,41.05
2023-04-13T12:05:00.030Z,40.82
2023-04-13T12:06:07.075Z,40.39
2023-04-13T12:07:15.197Z,39.64
2023-04-13T12:08:38.323Z,39.96
2023-04-13T12:14:06.383Z,39.92
2023-04-13T12:16:17.517Z,40.25
2023-04-13T12:18:43.678Z,40.86
2023-04-13T12:20:00.603Z,40.61
2023-04-13T12:21:06.049Z,40.38
2023-04-13T12:22:14.656Z,40.35
2023-04-13T12:23:43.753Z,39.98
2023-04-13T12:25:20.459Z,39.70
2023-04-13T12:28:06.933Z,40.19
2023-04-13T12:29:17.153Z,40.05
2023-04-13T12:30:27.738Z,40.04
2023-04-13T12:31:39.863Z,40.36
2023-04-13T12:32:58.287Z,40.37
2023-04-13T12:34:04.857Z,40.29
2023-04-13T12:35:10.546Z,40.00
2023-04-13T12:36:22.579Z,39.77
2023-04-13T12:37:29.946Z,39.33
2023-04-13T12:38:46.335Z,39.67
2023-04-13T12:40:19.569Z,39.61
2023-04-13T12:41:42.669Z,39.49
2023-04-13T12:42:47.813Z,39.59
2023-04-13T12:43:54.263Z,39.10
2023-04-13T12:44:58.612Z,39.59
2023-04-13T12:46:02.811Z,39.50
2023-04-13T12:47:11.588Z,39.66
2023-04-13T12:48:20.020Z,39.93
2023-04-13T12:49:32.873Z,39.59
2023-04-13T12:50:46.490Z,39.25
2023-04-13T12:51:57.963Z,39.38
2023-04-13T12:53:02.002Z,39.52
2023-04-13T12:54:08.991Z,39.25
2023-04-13T12:55:26.383Z,38.96
2023-04-13T12:56:31.220Z,39.37
2023-04-13T12:57:41.090Z,39.06
2023-04-13T12:58:45.578Z,38.90
2023-04-13T12:59:49.432Z,39.29
2023-04-13T13:00:53.260Z,38.69
2023-04-13T13:02:00.231Z,38.82
2023-04-13T13:03:13.577Z,38.76
2023-04-13T13:04:34.051Z,38.61
2023-04-13T13:05:42.074Z,38.70
2023-04-13T13:06:46.096Z,38.93
2023-04-13T13:07:52.885Z,39.02
2023-04-13T13:09:00.598Z,38.90
2023-04-13T13:10:25.981Z,39.11
2023-04-13T13:11:32.195Z,39.10
2023-04-13T13:12:46.867Z,38.66
2023-04-13T13:13:52.566Z,38.76
2023-04-13T13:15:10.583Z,39.26
2023-04-13T13:16:14.229Z,39.08
2023-04-13T13:17:23.197Z,39.68
2023-04-13T13:19:00.817Z,38.73
2023-04-13T13:20:13.090Z,39.05
2023-04-13T13:21:24.917Z,38.76
2023-04-13T13:22:31.007Z,38.49
2023-04-13T13:23:40.843Z,37.83
2023-04-13T13:24:47.044Z,38.46
2023-04-13T13:28:00.867Z,38.59
2023-04-13T13:28:43.024Z,38.74
2023-04-13T13:29:46.773Z,38.57
2023-04-13T13:30:59.534Z,38.42
2023-04-13T13:32:18.650Z,38.53
2023-04-13T13:33:29.030Z,38.28
2023-04-13T13:34:43.109Z,38.86
2023-04-13T13:36:04.729Z,38.73
2023-04-13T13:37:25.832Z,38.57
2023-04-13T13:38:49.607Z,38.45
2023-04-13T13:40:00.128Z,38.28
2023-04-13T13:41:04.265Z,38.48
2023-04-13T13:42:18.723Z,38.76
2023-04-13T13:43:27.511Z,38.50
2023-04-13T13:44:43.641Z,38.77
2023-04-13T13:46:00.237Z,38.80
2023-04-13T13:47:04.335Z,38.90
2023-04-13T13:48:08.843Z,39.24
2023-04-13T13:49:19.205Z,39.20
2023-04-13T13:52:55.195Z,39.23
2023-04-13T13:54:09.513Z,39.28
2023-04-13T13:55:13.402Z,39.17
2023-04-13T13:56:40.849Z,39.47
2023-04-13T13:57:54.263Z,39.15
2023-04-13T13:59:00.769Z,39.57
2023-04-13T14:00:36.875Z,39.69
2023-04-13T14:03:37.821Z,39.76
2023-04-13T14:06:17.247Z,39.64
2023-04-13T14:07:47.023Z,39.75
2023-04-13T14:09:03.048Z,39.49
2023-04-13T14:10:12.100Z,39.52
2023-04-13T14:11:34.786Z,39.47
2023-04-13T14:12:50.190Z,39.47
2023-04-13T14:14:10.773Z,39.67
2023-04-13T14:15:38.200Z,39.49
2023-04-13T14:17:10.632Z,39.10
2023-04-13T14:18:18.820Z,39.19
2023-04-13T14:19:23.304Z,38.69
2023-04-13T14:20:29.217Z,39.24
2023-04-13T14:21:41.510Z,39.19
2023-04-13T14:22:52.159Z,39.25
2023-04-13T14:24:50.978Z,39.08
2023-04-13T14:25:59.088Z,39.13
2023-04-13T14:27:09.815Z,39.22
2023-04-13T14:28:20.070Z,39.45
2023-04-13T14:29:29.283Z,39.33
2023-04-13T14:30:39.728Z,39.33
2023-04-13T14:31:54.841Z,39.62
2023-04-13T14:33:10.848Z,39.63
2023-04-13T14:34:41.972Z,39.82
2023-04-13T14:35:54.469Z,39.77
2023-04-13T14:37:01.276Z,39.49
2023-04-13T14:38:08.669Z,39.90
2023-04-13T14:39:25.150Z,39.72
2023-04-13T14:41:03.684Z,39.83
2023-04-13T14:42:23.503Z,39.93
2023-04-13T14:43:33.948Z,39.78
2023-04-13T14:44:46.158Z,40.02
2023-04-13T14:46:12.131Z,40.01
2023-04-13T14:48:53.702Z,39.94
2023-04-13T14:50:12.828Z,40.25
2023-04-13T14:51:36.194Z,40.43
2023-04-13T14:52:45.030Z,40.02
2023-04-13T14:53:50.345Z,40.19
2023-04-13T14:54:57.296Z,39.83
2023-04-13T14:56:01.001Z,40.31
2023-04-13T14:57:05.607Z,40.37
2023-04-13T14:58:24.768Z,40.22
2023-04-13T14:59:28.883Z,40.29
2023-04-13T15:00:41.872Z,40.36
2023-04-13T15:01:47.221Z,40.41
2023-04-13T15:02:52.915Z,40.35
2023-04-13T15:03:59.057Z,40.17
2023-04-13T15:05:03.819Z,40.51
2023-04-13T15:06:16.057Z,40.38
2023-04-13T15:07:30.222Z,40.56
2023-04-13T15:08:35.241Z,40.55
2023-04-13T15:09:43.519Z,40.47
2023-04-13T15:10:52.008Z,40.67
2023-04-13T15:12:05.555Z,40.83
2023-04-13T15:13:17.553Z,40.46
2023-04-13T15:14:30.893Z,40.69
2023-04-13T15:15:51.152Z,40.61
2023-04-13T15:17:19.198Z,40.72
2023-04-13T15:18:42.721Z,40.80
2023-04-13T15:19:58.456Z,41.11
2023-04-13T15:21:13.540Z,40.96
2023-04-13T15:22:21.603Z,41.07
2023-04-13T15:23:33.689Z,41.16
2023-04-13T15:24:44.442Z,41.43
2023-04-13T15:25:59.971Z,41.58
2023-04-13T15:27:11.807Z,41.41
2023-04-13T15:28:19.361Z,41.80
2023-04-13T15:29:31.340Z,41.58
2023-04-13T15:30:37.913Z,41.79
2023-04-13T15:31:47.095Z,42.33
2023-04-13T15:32:57.525Z,43.69
2023-04-13T15:34:01.661Z,45.30
2023-04-13T15:35:09.721Z,46.86
2023-04-13T15:36:27.096Z,48.35
2023-04-13T15:37:34.433Z,49.06
2023-04-13T15:38:46.491Z,49.80
2023-04-13T15:40:37.535Z,50.99
2023-04-13T15:41:48.681Z,52.06
2023-04-13T15:42:54.675Z,52.41
2023-04-13T15:44:09.865Z,53.88
2023-04-13T15:45:28.372Z,52.95
2023-04-13T15:46:36.264Z,53.42
2023-04-13T15:47:40.779Z,53.59
2023-04-13T15:49:09.079Z,54.68
2023-04-13T15:50:15.788Z,55.43
2023-04-13T15:51:32.699Z,55.44
2023-04-13T15:53:25.733Z,54.93
2023-04-13T15:54:35.067Z,55.25
2023-04-13T15:55:50.054Z,55.75
2023-04-13T15:57:03.078Z,56.03
2023-04-13T15:58:17.058Z,56.84
2023-04-13T15:59:24.453Z,55.89
2023-04-13T16:00:52.938Z,57.00
2023-04-13T16:02:06.536Z,56.63
2023-04-13T16:03:16.959Z,57.38
2023-04-13T16:04:22.278Z,57.40
2023-04-13T16:05:26.094Z,56.92
2023-04-13T16:06:39.264Z,57.11
2023-04-13T16:08:31.728Z,57.67
2023-04-13T16:09:59.429Z,58.53
2023-04-13T16:11:28.442Z,57.60
2023-04-13T16:13:19.725Z,57.15
2023-04-13T16:14:42.316Z,58.02
2023-04-13T16:16:00.515Z,58.31
2023-04-13T16:17:27.407Z,58.52
2023-04-13T16:18:41.823Z,59.11
2023-04-13T16:20:10.119Z,58.31
2023-04-13T16:21:27.170Z,58.03
2023-04-13T16:22:39.844Z,58.17
2023-04-13T16:23:47.745Z,58.93
2023-04-13T16:24:55.860Z,59.11
2023-04-13T16:26:27.963Z,59.94
2023-04-13T16:28:10.347Z,59.75
2023-04-13T16:29:14.552Z,60.28
2023-04-13T16:30:25.150Z,60.30
2023-04-13T16:31:29.228Z,60.01
2023-04-13T16:32:35.937Z,60.31
2023-04-13T16:33:42.585Z,61.18
2023-04-13T16:34:48.392Z,60.35
2023-04-13T16:36:24.971Z,60.79